Time;durP1;ratioP1;P1;durP2;ratioP2;P2;SDS_P1;SDS_P2;PMS_P1;PMS_P2;Temp;Humidity;BMP_temperature;BMP_pressure;BME280_temperature;BME280_humidity;BME280_pressure;Samples;Min_cycle;Max_cycle;Signal;HPM_P1;HPM_P2
2022/05/16 00:02:19;;;;;;;6.70;2.80;;;;;;;10.14;69.16;99578.21;108933;1277;139321;-57
2022/05/16 00:04:51;;;;;;;5.20;2.40;;;;;;;10.09;69.33;99581.92;109047;1278;22479;-57
2022/05/16 00:07:20;;;;;;;10.00;2.90;;;;;;;10.05;69.37;99583.84;109127;1278;22487;-57
2022/05/16 00:09:48;;;;;;;6.50;3.00;;;;;;;10.03;69.61;99583.69;109020;1278;139163;-57
2022/05/16 00:12:16;;;;;;;4.50;2.40;;;;;;;9.98;69.57;99583.67;109145;1277;22395;-57
2022/05/16 00:14:45;;;;;;;4.80;2.50;;;;;;;9.92;69.68;99588.78;109034;1277;137631;-57
2022/05/16 00:17:13;;;;;;;6.20;3.00;;;;;;;9.84;69.82;99590.06;109100;1277;22539;-57
2022/05/16 00:19:41;;;;;;;8.80;2.30;;;;;;;9.77;70.01;99593.96;109104;1277;138033;-58
2022/05/16 00:22:10;;;;;;;6.90;2.20;;;;;;;9.70;70.21;99587.86;109229;1276;22452;-57
2022/05/16 00:24:42;;;;;;;5.00;2.30;;;;;;;9.67;70.47;99595.89;109212;1277;23092;-57
2022/05/16 00:27:12;;;;;;;4.20;2.20;;;;;;;9.63;70.60;99596.70;109126;1277;139252;-57
2022/05/16 00:29:40;;;;;;;3.80;1.90;;;;;;;9.58;70.60;99597.71;109251;1277;23248;-57
2022/05/16 00:32:08;;;;;;;5.00;2.30;;;;;;;9.52;70.83;99597.56;109123;1276;138666;-57
2022/05/16 00:34:37;;;;;;;7.40;2.10;;;;;;;9.49;71.05;99599.34;109190;1277;22492;-57
2022/05/16 00:37:05;;;;;;;8.20;2.40;;;;;;;9.45;71.09;99597.58;105712;1277;22741;-57
2022/05/16 00:39:33;;;;;;;3.90;1.80;;;;;;;9.38;71.22;99592.52;109116;1276;138654;-57
2022/05/16 00:42:01;;;;;;;6.90;2.50;;;;;;;9.33;71.39;99595.16;109194;1276;22480;-57
2022/05/16 00:44:30;;;;;;;5.80;2.20;;;;;;;9.28;71.40;99594.52;109131;1277;137454;-57
2022/05/16 00:46:58;;;;;;;4.20;1.60;;;;;;;9.25;71.72;99598.71;109274;1277;22449;-57
2022/05/16 00:49:28;;;;;;;3.40;2.00;;;;;;;9.20;71.80;99595.23;109158;1277;23630;-57
2022/05/16 00:52:09;;;;;;;7.10;2.30;;;;;;;9.15;71.84;99597.52;109051;1277;138362;-57
2022/05/16 00:54:43;;;;;;;4.30;1.70;;;;;;;9.11;72.11;99599.74;109179;1277;22460;-57
2022/05/16 00:57:18;;;;;;;5.90;2.10;;;;;;;9.04;72.06;99599.36;108874;1278;139452;-57
2022/05/16 00:59:53;;;;;;;5.10;2.00;;;;;;;8.96;72.30;99598.02;109192;1277;22432;-57
2022/05/16 01:05:10;;;;;;;7.30;2.30;;;;;;;8.79;72.37;99598.92;109171;1276;22579;-57
2022/05/16 01:07:41;;;;;;;2.60;1.70;;;;;;;8.69;72.53;99603.24;104816;1277;25326;-57
2022/05/16 01:10:11;;;;;;;5.60;2.40;;;;;;;8.62;72.82;99599.42;108961;1278;138486;-57
2022/05/16 01:12:41;;;;;;;4.40;2.30;;;;;;;8.57;73.13;99602.70;109213;1276;22474;-57
2022/05/16 01:15:15;;;;;;;9.20;2.80;;;;;;;8.51;73.40;99596.77;109084;1277;138063;-57
2022/05/16 01:17:43;;;;;;;6.60;2.30;;;;;;;8.47;73.44;99599.86;109234;1277;22425;-57
2022/05/16 01:20:11;;;;;;;4.80;2.10;;;;;;;8.41;73.62;99600.07;109113;1276;141161;-57
2022/05/16 01:22:47;;;;;;;3.40;2.00;;;;;;;8.35;73.79;99599.83;109222;1276;22432;-57
2022/05/16 01:25:19;;;;;;;6.90;2.20;;;;;;;8.28;73.89;99597.04;109245;1277;23081;-57
2022/05/16 01:27:55;;;;;;;6.60;2.00;;;;;;;8.22;73.86;99593.52;108953;1277;138891;-57
2022/05/16 01:30:28;;;;;;;12.00;3.50;;;;;;;8.15;73.94;99593.00;109250;1277;23612;-58
2022/05/16 01:32:56;;;;;;;6.70;2.00;;;;;;;8.06;73.89;99596.02;109139;1277;138253;-57
2022/05/16 01:35:27;;;;;;;4.60;2.40;;;;;;;8.00;73.84;99600.49;109182;1277;22476;-57
2022/05/16 01:40:41;;;;;;;16.00;2.30;;;;;;;7.87;74.49;99599.79;109132;1277;22446;-57
2022/05/16 01:43:10;;;;;;;5.80;2.50;;;;;;;7.85;74.63;99598.45;109215;1277;22438;-57
2022/05/16 01:45:39;;;;;;;7.60;2.50;;;;;;;7.84;74.73;99600.05;109133;1277;138098;-57
2022/05/16 01:48:11;;;;;;;5.60;1.80;;;;;;;7.85;74.96;99602.08;109219;1277;23261;-57
2022/05/16 01:50:40;;;;;;;4.60;2.20;;;;;;;7.85;75.08;99602.50;109107;1277;137730;-57
2022/05/16 01:53:08;;;;;;;5.70;2.50;;;;;;;7.84;75.06;99601.98;109161;1278;22442;-57
2022/05/16 01:55:36;;;;;;;5.90;2.50;;;;;;;7.79;75.01;99604.23;109197;1277;22458;-57
2022/05/16 01:58:05;;;;;;;8.40;2.10;;;;;;;7.75;75.00;99610.37;109077;1277;138861;-57
2022/05/16 02:00:34;;;;;;;7.80;2.40;;;;;;;7.69;75.04;99609.42;109192;1277;22479;-57
2022/05/16 02:03:02;;;;;;;4.40;2.10;;;;;;;7.63;74.91;99605.92;108969;1277;138308;-57
2022/05/16 02:05:31;;;;;;;3.90;2.20;;;;;;;7.55;75.10;99603.40;109172;1277;22511;-58
2022/05/16 02:07:59;;;;;;;6.50;2.50;;;;;;;7.48;74.68;99598.59;109231;1276;138538;-57
2022/05/16 02:10:33;;;;;;;6.30;2.10;;;;;;;7.44;74.88;99603.77;109248;1277;22485;-57
2022/05/16 02:13:03;;;;;;;6.00;2.20;;;;;;;7.40;74.90;99598.02;109195;1277;22461;-57
2022/05/16 02:15:32;;;;;;;6.20;2.40;;;;;;;7.36;75.12;99597.59;108453;1277;139322;-57
2022/05/16 02:18:00;;;;;;;6.50;2.30;;;;;;;7.31;75.04;99596.61;104967;1277;24133;-57
2022/05/16 02:20:29;;;;;;;4.80;2.90;;;;;;;7.25;75.15;99598.58;104869;1277;138010;-56
2022/05/16 02:25:45;;;;;;;4.10;2.10;;;;;;;7.14;75.67;99600.81;104944;1277;25329;-56
2022/05/16 02:28:16;;;;;;;3.80;2.10;;;;;;;7.12;75.76;99598.05;109234;1276;138347;-57
2022/05/16 02:30:52;;;;;;;5.70;2.60;;;;;;;7.09;75.58;99598.08;109307;1276;22429;-57
2022/05/16 02:33:21;;;;;;;7.90;2.40;;;;;;;7.08;75.96;99598.48;109110;1277;138116;-57
2022/05/16 02:35:49;;;;;;;4.60;2.00;;;;;;;7.06;76.03;99597.10;109291;1276;22660;-57
2022/05/16 02:38:19;;;;;;;6.10;2.00;;;;;;;7.06;76.27;99605.23;109230;1276;139655;-57
2022/05/16 02:40:49;;;;;;;9.40;2.40;;;;;;;7.05;76.26;99603.26;109211;1276;22430;-57
2022/05/16 02:43:17;;;;;;;3.80;1.90;;;;;;;7.10;76.34;99607.95;109223;1276;22432;-57
2022/05/16 02:45:45;;;;;;;4.20;2.20;;;;;;;7.14;76.53;99605.77;109205;1277;139035;-57
2022/05/16 02:48:13;;;;;;;6.80;2.00;;;;;;;7.16;76.72;99607.15;109295;1276;22431;-57
2022/05/16 02:50:41;;;;;;;5.70;2.60;;;;;;;7.19;77.09;99607.13;109208;1276;137793;-57
2022/05/16 02:53:10;;;;;;;7.70;2.30;;;;;;;7.21;76.93;99609.07;109205;1277;22265;-57
2022/05/16 02:55:38;;;;;;;6.00;3.20;;;;;;;7.21;76.97;99609.70;109251;1277;22591;-57
2022/05/16 02:58:07;;;;;;;9.40;2.00;;;;;;;7.20;77.11;99607.68;109075;1276;137719;-57
2022/05/16 03:00:37;;;;;;;5.90;2.80;;;;;;;7.22;77.36;99607.50;109228;1277;22217;-57
2022/05/16 03:03:05;;;;;;;5.10;2.10;;;;;;;7.25;77.17;99607.30;109133;1277;137813;-56
2022/05/16 03:05:33;;;;;;;5.30;2.10;;;;;;;7.28;76.94;99609.92;109340;1276;23359;-56
2022/05/16 03:08:01;;;;;;;6.90;2.70;;;;;;;7.29;77.26;99607.45;109198;1276;138540;-56
2022/05/16 03:10:29;;;;;;;4.90;2.50;;;;;;;7.32;77.63;99610.85;109237;1276;22585;-56
2022/05/16 03:12:58;;;;;;;3.40;2.20;;;;;;;7.36;77.59;99610.66;109213;1277;23511;-56
2022/05/16 03:15:29;;;;;;;7.20;3.20;;;;;;;7.42;77.74;99611.51;109161;1277;139743;-57
2022/05/16 03:17:57;;;;;;;5.20;2.80;;;;;;;7.50;77.84;99609.41;109221;1277;22393;-56
2022/05/16 03:20:26;;;;;;;8.40;2.60;;;;;;;7.58;77.97;99611.77;109086;1277;139281;-56
2022/05/16 03:22:54;;;;;;;5.40;2.60;;;;;;;7.66;77.90;99613.37;109136;1277;22435;-56
2022/05/16 03:25:22;;;;;;;5.10;2.70;;;;;;;7.75;77.74;99615.04;109229;1276;23737;-56
2022/05/16 03:27:50;;;;;;;8.80;2.70;;;;;;;7.84;78.21;99619.23;109096;1277;138731;-56
2022/05/16 03:30:19;;;;;;;7.20;3.00;;;;;;;7.94;78.08;99616.52;109256;1276;22435;-56
2022/05/16 03:32:50;;;;;;;7.60;3.10;;;;;;;8.03;78.10;99618.67;109129;1277;137974;-56
2022/05/16 03:35:18;;;;;;;15.30;3.20;;;;;;;8.10;78.31;99617.59;109231;1277;23755;-56
2022/05/16 03:37:47;;;;;;;4.90;2.30;;;;;;;8.21;78.17;99619.60;109186;1277;22442;-56
2022/05/16 03:43:03;;;;;;;6.20;3.00;;;;;;;8.40;77.99;99615.63;109230;1276;22382;-56
2022/05/16 03:45:31;;;;;;;6.70;2.80;;;;;;;8.50;77.91;99617.94;109120;1277;138933;-56
2022/05/16 03:48:00;;;;;;;10.20;2.90;;;;;;;8.60;77.83;99618.02;109211;1277;22650;-57
2022/05/16 03:50:28;;;;;;;6.20;2.70;;;;;;;8.68;77.72;99610.89;109055;1277;139211;-57
2022/05/16 03:52:59;;;;;;;7.50;3.60;;;;;;;8.80;77.52;99613.77;109219;1277;22419;-57
2022/05/16 03:55:28;;;;;;;11.30;3.50;;;;;;;8.92;77.29;99615.77;109245;1276;22459;-57
2022/05/16 03:57:56;;;;;;;10.40;3.90;;;;;;;9.03;76.96;99613.05;109166;1277;137965;-57
2022/05/16 04:00:25;;;;;;;8.90;3.80;;;;;;;9.15;76.59;99606.88;109171;1277;22501;-57
2022/05/16 04:02:52;;;;;;;10.20;5.00;;;;;;;9.30;76.18;99609.08;109185;1277;138131;-57
2022/05/16 04:05:23;;;;;;;12.80;4.50;;;;;;;9.45;75.75;99606.02;109177;1277;23620;-57
2022/05/16 04:07:51;;;;;;;12.80;3.80;;;;;;;9.62;75.37;99606.26;109293;1276;23194;-57
2022/05/16 04:10:21;;;;;;;8.70;4.00;;;;;;;9.80;74.81;99611.79;109118;1277;138879;-57
2022/05/16 04:12:50;;;;;;;9.70;3.30;;;;;;;9.94;74.03;99604.33;109303;1277;22445;-57
2022/05/16 04:15:18;;;;;;;7.70;2.90;;;;;;;10.09;73.21;99606.75;109048;1277;138051;-57
2022/05/16 04:17:47;;;;;;;8.20;3.30;;;;;;;10.22;72.59;99605.36;109287;1276;23095;-57
2022/05/16 04:20:18;;;;;;;6.30;2.50;;;;;;;10.34;71.98;99609.33;109230;1276;139685;-57
2022/05/16 04:22:46;;;;;;;8.20;2.30;;;;;;;10.45;71.32;99609.50;109259;1276;23645;-57
2022/05/16 04:25:16;;;;;;;4.30;2.10;;;;;;;10.54;70.69;99607.27;109128;1276;26520;-57
2022/05/16 04:27:47;;;;;;;3.40;1.90;;;;;;;10.64;70.08;99607.54;104854;1277;138051;-56
2022/05/16 04:30:15;;;;;;;5.70;2.80;;;;;;;10.74;69.52;99603.77;104896;1277;22598;-56
2022/05/16 04:32:43;;;;;;;5.90;1.80;;;;;;;10.80;68.98;99597.61;104750;1277;137550;-58
2022/05/16 04:35:12;;;;;;;3.90;1.90;;;;;;;10.89;68.63;99599.23;104848;1278;25173;-56
2022/05/16 04:37:40;;;;;;;7.80;3.10;;;;;;;10.96;68.24;99605.36;109235;1277;23193;-57
2022/05/16 04:40:09;;;;;;;7.60;2.00;;;;;;;11.05;68.04;99605.39;109169;1277;138172;-57
2022/05/16 04:42:44;;;;;;;8.10;1.80;;;;;;;11.13;67.48;99605.66;109318;1276;22506;-57
2022/05/16 04:45:23;;;;;;;5.50;2.10;;;;;;;11.21;66.69;99601.00;109112;1277;137458;-57
2022/05/16 04:47:53;;;;;;;7.80;2.90;;;;;;;11.28;66.19;99601.91;109248;1277;22631;-57
2022/05/16 04:50:25;;;;;;;8.80;2.50;;;;;;;11.36;66.03;99604.61;109205;1276;137537;-57
2022/05/16 04:52:53;;;;;;;9.60;2.40;;;;;;;11.46;66.06;99603.04;109290;1276;22555;-57
2022/05/16 04:55:21;;;;;;;6.80;2.00;;;;;;;11.59;66.16;99603.85;109306;1276;22510;-58
2022/05/16 04:57:50;;;;;;;6.00;2.30;;;;;;;11.75;65.36;99605.55;109186;1277;137299;-57
2022/05/16 05:00:19;;;;;;;3.60;2.10;;;;;;;11.90;64.92;99604.02;109295;1276;23243;-57
2022/05/16 05:02:48;;;;;;;10.20;1.80;;;;;;;12.06;64.37;99604.10;109087;1277;138072;-57
2022/05/16 05:05:22;;;;;;;5.00;1.60;;;;;;;12.22;63.82;99604.67;109302;1276;23206;-57
2022/05/16 05:07:52;;;;;;;8.50;1.80;;;;;;;12.41;63.16;99604.19;109281;1276;22528;-57
2022/05/16 05:16:02;;;;;;;3.20;1.70;;;;;;;13.57;59.96;99591.83;109105;1277;137933;-57
2022/05/16 05:18:31;;;;;;;5.50;2.10;;;;;;;14.02;58.65;99589.91;109333;1276;22418;-57
2022/05/16 05:20:59;;;;;;;6.30;2.00;;;;;;;14.48;57.60;99588.59;109206;1276;138533;-59
2022/05/16 05:23:27;;;;;;;4.80;1.60;;;;;;;14.96;56.70;99585.85;109341;1276;22520;-57
2022/05/16 05:25:57;;;;;;;7.50;2.40;;;;;;;15.46;55.58;99586.56;109282;1276;23270;-57
2022/05/16 05:28:25;;;;;;;5.70;1.50;;;;;;;15.97;54.17;99586.49;109163;1277;137961;-57
2022/05/16 05:30:52;;;;;;;4.40;1.60;;;;;;;16.44;52.94;99582.73;109361;1277;22392;-57
2022/05/16 05:33:20;;;;;;;2.10;1.50;;;;;;;16.89;51.79;99581.48;109194;1277;137626;-57
2022/05/16 05:35:48;;;;;;;5.70;1.40;;;;;;;17.30;50.68;99578.42;109263;1276;22421;-58
2022/05/16 05:38:18;;;;;;;4.20;1.50;;;;;;;17.66;49.42;99576.77;109228;1276;137734;-59
2022/05/16 05:40:46;;;;;;;2.10;1.30;;;;;;;18.01;48.00;99574.02;109184;1277;23660;-59
2022/05/16 05:43:14;;;;;;;3.00;1.50;;;;;;;18.29;46.72;99576.47;109349;1276;22394;-59
2022/05/16 05:45:43;;;;;;;5.80;2.00;;;;;;;18.56;45.93;99570.66;109204;1276;138543;-59
2022/05/16 05:48:11;;;;;;;3.90;2.20;;;;;;;18.82;45.59;99570.77;109245;1277;22411;-59
2022/05/16 05:50:42;;;;;;;3.10;1.50;;;;;;;19.12;44.74;99571.83;109184;1276;138551;-59
2022/05/16 05:53:10;;;;;;;6.30;1.70;;;;;;;19.33;44.04;99569.81;109285;1275;22551;-59
2022/05/16 05:55:39;;;;;;;3.50;2.10;;;;;;;19.53;43.52;99571.20;109192;1277;22510;-59
2022/05/16 05:58:07;;;;;;;4.50;2.20;;;;;;;19.70;43.00;99569.33;108917;1277;137422;-59
2022/05/16 06:00:35;;;;;;;11.10;1.90;;;;;;;19.78;42.59;99568.60;109314;1276;22509;-59
2022/05/16 06:03:03;;;;;;;5.60;2.00;;;;;;;19.78;42.34;99566.55;109136;1277;138497;-59
2022/05/16 06:05:31;;;;;;;21.00;3.20;;;;;;;19.70;41.80;99565.90;109202;1277;22526;-59
2022/05/16 06:07:59;;;;;;;5.50;2.00;;;;;;;19.53;41.18;99568.05;109233;1277;22582;-59
2022/05/16 06:10:28;;;;;;;6.60;2.90;;;;;;;19.33;41.44;99570.27;109092;1277;138290;-58
2022/05/16 06:12:59;;;;;;;5.90;1.90;;;;;;;19.12;41.55;99572.60;109346;1276;22447;-59
2022/05/16 06:15:27;;;;;;;6.20;1.80;;;;;;;18.89;41.84;99573.59;109082;1277;140109;-59
2022/05/16 06:17:56;;;;;;;4.30;2.80;;;;;;;18.70;41.94;99574.74;109228;1277;22244;-59
2022/05/16 06:20:25;;;;;;;5.00;2.10;;;;;;;18.51;42.26;99573.14;109124;1277;139194;-59
2022/05/16 06:22:54;;;;;;;25.50;6.60;;;;;;;18.32;42.60;99571.73;109235;1277;22269;-59
2022/05/16 06:25:31;;;;;;;13.10;2.70;;;;;;;18.15;42.73;99571.04;109244;1277;22494;-59
2022/05/16 06:28:08;;;;;;;19.30;3.80;;;;;;;17.96;42.82;99570.14;109073;1277;138531;-59
2022/05/16 06:30:39;;;;;;;6.60;2.90;;;;;;;17.80;42.97;99569.19;109255;1277;22490;-58
2022/05/16 06:33:07;;;;;;;7.70;2.70;;;;;;;17.66;42.91;99570.86;109161;1276;138563;-59
2022/05/16 06:35:35;;;;;;;9.40;3.40;;;;;;;17.50;42.76;99574.22;109339;1276;22509;-59
2022/05/16 06:38:09;;;;;;;9.50;3.70;;;;;;;17.36;43.00;99572.74;109217;1277;22331;-58
2022/05/16 06:40:39;;;;;;;5.20;1.10;;;;;;;17.23;43.07;99571.80;109234;1275;138039;-59
2022/05/16 06:43:07;;;;;;;4.70;1.40;;;;;;;17.12;42.68;99567.70;109317;1276;23163;-59
2022/05/16 06:45:37;;;;;;;8.00;2.00;;;;;;;17.05;43.32;99568.40;109230;1276;138858;-59
2022/05/16 06:48:05;;;;;;;5.80;1.50;;;;;;;17.01;43.39;99567.16;109264;1276;22398;-58
2022/05/16 06:50:33;;;;;;;3.50;1.50;;;;;;;16.99;43.92;99567.42;109224;1277;138869;-59
2022/05/16 06:53:03;;;;;;;2.60;1.10;;;;;;;16.98;43.94;99563.96;109228;1277;23374;-59
2022/05/16 06:55:31;;;;;;;4.40;1.00;;;;;;;16.98;44.06;99560.38;109248;1276;23350;-59
2022/05/16 06:58:02;;;;;;;4.00;1.30;;;;;;;16.98;44.44;99557.79;109066;1277;138170;-58
2022/05/16 07:00:32;;;;;;;3.00;1.00;;;;;;;17.00;44.46;99557.77;109167;1277;23566;-59
2022/05/16 07:03:00;;;;;;;4.90;1.50;;;;;;;17.02;44.50;99557.08;109115;1277;139455;-58
2022/05/16 07:05:47;;;;;;;4.00;1.00;;;;;;;16.98;44.82;99553.23;108110;1277;22710;-58
2022/05/16 07:08:16;;;;;;;8.20;1.50;;;;;;;16.98;45.58;99552.79;109296;1276;22513;-58
2022/05/16 07:10:46;;;;;;;2.40;1.10;;;;;;;17.01;46.49;99547.83;109174;1275;136986;-59
2022/05/16 07:13:21;;;;;;;3.20;1.20;;;;;;;17.06;46.12;99547.08;109325;1274;22489;-59
2022/05/16 07:15:49;;;;;;;4.10;1.20;;;;;;;17.07;45.06;99555.48;109165;1276;138119;-58
2022/05/16 07:18:17;;;;;;;4.60;1.20;;;;;;;17.05;44.32;99552.11;109322;1277;23657;-58
2022/05/16 07:20:47;;;;;;;5.10;1.20;;;;;;;17.00;44.69;99549.68;109178;1276;137497;-58
2022/05/16 07:23:16;;;;;;;6.80;1.30;;;;;;;16.99;44.63;99550.35;109322;1274;22520;-59
2022/05/16 07:28:31;;;;;;;2.90;1.00;;;;;;;16.95;44.84;99545.39;109206;1276;138926;-58
2022/05/16 07:30:59;;;;;;;4.70;1.10;;;;;;;16.88;44.84;99543.96;109324;1276;23190;-58
2022/05/16 07:33:27;;;;;;;2.70;1.00;;;;;;;16.83;45.13;99552.80;109153;1275;137159;-58
2022/05/16 07:35:55;;;;;;;4.50;1.10;;;;;;;16.81;45.44;99546.33;109302;1276;22420;-58
2022/05/16 07:38:25;;;;;;;3.00;1.10;;;;;;;16.82;46.12;99544.98;109196;1276;138334;-60
2022/05/16 07:40:53;;;;;;;6.60;1.40;;;;;;;16.85;46.15;99541.48;109291;1274;23364;-59
2022/05/16 07:43:22;;;;;;;3.40;1.40;;;;;;;16.87;45.97;99542.84;109215;1276;22419;-58
2022/05/16 07:45:50;;;;;;;3.50;1.00;;;;;;;16.86;45.40;99547.52;109192;1274;138377;-58
2022/05/16 07:48:18;;;;;;;4.50;1.10;;;;;;;16.84;44.83;99550.08;109268;1275;22468;-58
2022/05/16 07:50:48;;;;;;;3.80;1.00;;;;;;;16.78;44.10;99550.83;109168;1277;138957;-58
2022/05/16 07:53:16;;;;;;;4.00;0.90;;;;;;;16.68;44.49;99551.80;109176;1277;22455;-58
2022/05/16 07:55:51;;;;;;;5.00;1.50;;;;;;;16.58;44.81;99550.70;109293;1276;23180;-58
2022/05/16 07:58:21;;;;;;;2.50;1.20;;;;;;;16.52;45.06;99547.39;109184;1277;138836;-58
2022/05/16 08:00:54;;;;;;;2.80;1.20;;;;;;;16.46;45.41;99539.25;109264;1276;22434;-58
2022/05/16 08:03:24;;;;;;;2.80;1.00;;;;;;;16.52;45.39;99545.73;109137;1276;138372;-59
2022/05/16 08:05:52;;;;;;;4.80;1.10;;;;;;;16.58;45.82;99544.77;109311;1275;22498;-59
2022/05/16 08:11:09;;;;;;;4.80;1.20;;;;;;;16.78;45.58;99538.93;109300;1276;22481;-59
2022/05/16 08:13:38;;;;;;;4.50;1.40;;;;;;;16.90;44.74;99537.77;109334;1276;22417;-58
2022/05/16 08:16:06;;;;;;;4.30;1.50;;;;;;;16.99;43.12;99543.09;109198;1275;137843;-58
2022/05/16 08:18:34;;;;;;;3.90;1.60;;;;;;;16.98;42.35;99543.54;109303;1277;23547;-58
2022/05/16 08:21:02;;;;;;;5.60;1.00;;;;;;;16.94;42.19;99544.41;109173;1276;138734;-58
2022/05/16 08:23:30;;;;;;;1.50;0.90;;;;;;;16.94;41.73;99550.25;109255;1274;22479;-58
2022/05/16 08:26:01;;;;;;;4.50;1.10;;;;;;;16.95;40.46;99549.73;109261;1276;22427;-58
2022/05/16 08:28:30;;;;;;;2.90;0.80;;;;;;;16.91;40.55;99544.96;109170;1274;137610;-58
2022/05/16 08:30:58;;;;;;;7.30;1.50;;;;;;;16.79;41.20;99550.47;109306;1276;22419;-58
2022/05/16 08:33:28;;;;;;;2.30;1.20;;;;;;;16.73;41.65;99553.10;109211;1274;139368;-58
2022/05/16 08:41:36;;;;;;;8.00;1.60;;;;;;;16.76;40.73;99551.84;109190;1277;137970;-59
2022/05/16 08:44:07;;;;;;;3.70;1.40;;;;;;;16.83;40.06;99548.61;109005;1277;23077;-57
2022/05/16 08:46:46;;;;;;;12.30;2.40;;;;;;;16.90;40.61;99551.79;109061;1276;137851;-57
2022/05/16 08:49:22;;;;;;;7.50;1.80;;;;;;;16.98;40.25;99547.38;109172;1277;22465;-59
2022/05/16 08:51:54;;;;;;;6.60;2.30;;;;;;;17.04;39.93;99553.84;108992;1277;138604;-57
2022/05/16 08:54:30;;;;;;;8.20;2.50;;;;;;;17.01;39.17;99563.48;109249;1277;22455;-57
2022/05/16 08:56:59;;;;;;;8.60;2.40;;;;;;;16.89;38.87;99572.17;109085;1277;22445;-57
2022/05/16 08:59:27;;;;;;;4.30;2.10;;;;;;;16.73;39.18;99574.29;108948;1274;138301;-57
2022/05/16 09:02:16;;;;;;;5.80;2.30;;;;;;;16.54;39.79;99573.94;109303;1275;22398;-59
2022/05/16 09:04:53;;;;;;;6.40;1.60;;;;;;;16.41;40.09;99571.78;108894;1277;137909;-59
2022/05/16 09:07:26;;;;;;;7.20;2.30;;;;;;;16.40;39.62;99572.89;109217;1277;22474;-60
2022/05/16 09:10:08;;;;;;;3.60;2.00;;;;;;;16.45;40.19;99563.44;109150;1276;137613;-60
2022/05/16 09:12:46;;;;;;;6.80;1.80;;;;;;;16.52;40.13;99557.71;109289;1274;22390;-57
2022/05/16 09:15:27;;;;;;;5.00;1.90;;;;;;;16.64;39.30;99556.67;108819;1277;138979;-60
2022/05/16 09:18:10;;;;;;;5.10;1.50;;;;;;;16.79;39.27;99551.38;104729;1277;24276;-59
2022/05/16 09:20:53;;;;;;;5.20;2.00;;;;;;;16.94;37.98;99550.85;104852;1277;23973;-59
2022/05/16 09:23:53;;;;;;;4.20;1.60;;;;;;;17.00;37.53;99553.74;104727;1277;138243;-57
2022/05/16 09:26:47;;;;;;;8.80;1.90;;;;;;;16.95;37.05;99549.02;109314;1274;22449;-58
2022/05/16 09:29:32;;;;;;;7.20;2.40;;;;;;;16.83;36.73;99555.33;109108;1277;137477;-58
2022/05/16 09:32:33;;;;;;;5.50;1.60;;;;;;;16.69;36.97;99554.22;109155;1277;22832;-58
2022/05/16 09:35:02;;;;;;;3.80;1.50;;;;;;;16.65;37.52;99558.99;109030;1277;138756;-58
2022/05/16 09:37:30;;;;;;;4.10;1.60;;;;;;;16.69;37.84;99554.44;109236;1276;22448;-58
2022/05/16 09:39:58;;;;;;;4.60;1.80;;;;;;;16.71;37.59;99552.16;109065;1277;138968;-58
2022/05/16 09:42:28;;;;;;;7.60;1.70;;;;;;;16.72;37.92;99553.14;108968;1277;22443;-58
2022/05/16 09:44:58;;;;;;;4.30;1.20;;;;;;;16.72;38.05;99547.95;109154;1277;22464;-58
2022/05/16 09:47:28;;;;;;;5.50;1.70;;;;;;;16.76;38.70;99548.44;109214;1275;137146;-58
2022/05/16 09:50:02;;;;;;;10.90;1.50;;;;;;;16.81;38.29;99550.12;109294;1275;23158;-58
2022/05/16 09:52:32;;;;;;;5.10;0.80;;;;;;;16.86;37.30;99551.94;109205;1276;137386;-59
2022/05/16 09:55:06;;;;;;;6.20;1.20;;;;;;;16.86;37.45;99551.55;109260;1277;23328;-58
2022/05/16 09:57:46;;;;;;;10.00;1.50;;;;;;;16.84;37.76;99550.47;109203;1276;139438;-58
2022/05/16 10:00:21;;;;;;;12.20;1.80;;;;;;;16.89;37.98;99559.50;109035;1276;22496;-58
2022/05/16 10:02:56;;;;;;;1.20;0.90;;;;;;;16.92;37.40;99549.28;109154;1277;22413;-58
2022/05/16 10:05:31;;;;;;;1.90;1.10;;;;;;;16.93;37.97;99543.99;108940;1277;137690;-58
2022/05/16 10:08:05;;;;;;;2.70;1.10;;;;;;;16.97;38.23;99541.28;109199;1277;23317;-58
2022/05/16 10:10:36;;;;;;;4.70;1.60;;;;;;;17.06;37.57;99543.00;109100;1277;137227;-58
2022/05/16 10:13:04;;;;;;;3.50;1.30;;;;;;;17.10;37.66;99539.25;109287;1276;22464;-58
2022/05/16 10:15:34;;;;;;;1.50;1.10;;;;;;;17.16;37.95;99534.04;108973;1275;137492;-59
2022/05/16 10:18:05;;;;;;;2.70;1.30;;;;;;;17.20;37.89;99536.99;109018;1277;22458;-59
2022/05/16 10:20:35;;;;;;;3.60;1.00;;;;;;;17.23;37.30;99534.14;108919;1277;300036;-59
2022/05/16 10:24:52;;;;;;;3.30;1.60;;;;;;;17.35;37.45;99527.70;101695;1309;545905;-59
2022/05/16 10:27:29;;;;;;;3.20;1.10;;;;;;;17.41;37.33;99526.45;108202;1284;137912;-57
2022/05/16 10:29:59;;;;;;;3.40;0.90;;;;;;;17.45;36.98;99530.95;108300;1287;22659;-58
2022/05/16 10:36:02;;;;;;;2.60;1.20;;;;;;;17.55;35.85;99531.33;107386;1292;136638;-58
2022/05/16 10:38:52;;;;;;;3.20;2.00;;;;;;;17.53;36.19;99529.14;107316;1290;465490;-57
2022/05/16 10:41:24;;;;;;;7.80;1.50;;;;;;;17.48;36.54;99527.04;108004;1287;137385;-57
2022/05/16 10:44:10;;;;;;;6.80;1.60;;;;;;;17.48;37.06;99530.05;108054;1287;22565;-57
2022/05/16 10:46:39;;;;;;;5.70;1.40;;;;;;;17.50;37.16;99526.66;108030;1286;137940;-57
2022/05/16 10:49:10;;;;;;;4.00;1.40;;;;;;;17.51;36.39;99530.67;108222;1286;22418;-58
2022/05/16 10:51:44;;;;;;;2.40;1.20;;;;;;;17.40;36.22;99530.52;107987;1286;138108;-57
2022/05/16 10:54:23;;;;;;;5.00;1.30;;;;;;;17.28;36.64;99529.66;108138;1287;22436;-58
2022/05/16 10:57:20;;;;;;;3.90;1.10;;;;;;;17.20;37.08;99523.61;108271;1286;22605;-58
2022/05/16 11:00:07;;;;;;;3.00;1.10;;;;;;;17.21;37.20;99523.38;108132;1286;137842;-58
2022/05/16 11:02:42;;;;;;;5.10;1.80;;;;;;;17.27;36.95;99516.07;108003;1287;22488;-58
2022/05/16 11:05:39;;;;;;;17.10;1.90;;;;;;;17.30;36.85;99509.54;108140;1286;139113;-58
2022/05/16 11:08:17;;;;;;;3.90;1.50;;;;;;;17.33;36.80;99509.40;108187;1286;23218;-58
2022/05/16 11:10:52;;;;;;;2.70;1.50;;;;;;;17.32;36.72;99507.70;108395;1281;137049;-58
2022/05/16 11:13:36;;;;;;;5.20;1.10;;;;;;;17.30;36.92;99503.13;108749;1281;22482;-58
2022/05/16 11:16:41;;;;;;;2.00;1.10;;;;;;;17.33;37.31;99499.53;108562;1281;137452;-58
2022/05/16 11:19:37;;;;;;;3.40;1.30;;;;;;;17.36;35.96;99505.65;108665;1281;23236;-58
2022/05/16 11:22:22;;;;;;;3.50;1.00;;;;;;;17.35;35.89;99509.96;108547;1283;137305;-58
2022/05/16 11:25:12;;;;;;;4.30;1.10;;;;;;;17.33;36.15;99505.80;108628;1282;22449;-58
2022/05/16 11:28:05;;;;;;;3.00;1.20;;;;;;;17.34;36.38;99507.66;108500;1282;137242;-58
2022/05/16 11:30:52;;;;;;;4.10;1.40;;;;;;;17.36;36.54;99503.51;108711;1281;23301;-58
2022/05/16 11:33:25;;;;;;;4.10;1.30;;;;;;;17.39;37.20;99502.36;108668;1282;23200;-58
2022/05/16 11:35:55;;;;;;;3.30;1.30;;;;;;;17.43;36.94;99500.48;108622;1281;137377;-58
2022/05/16 11:38:37;;;;;;;7.40;2.60;;;;;;;17.43;36.67;99499.70;108640;1281;22437;-58
2022/05/16 11:41:26;;;;;;;3.80;1.20;;;;;;;17.43;36.18;99498.16;108584;1281;138004;-58
2022/05/16 11:44:32;;;;;;;5.10;1.10;;;;;;;17.48;36.56;99484.27;108575;1282;22514;-58
2022/05/16 11:47:36;;;;;;;6.90;1.30;;;;;;;17.55;36.27;99489.61;108810;1278;137772;-58
2022/05/16 11:50:50;;;;;;;3.30;1.30;;;;;;;17.58;35.28;99488.45;108879;1280;22521;-58
2022/05/16 11:53:40;;;;;;;3.00;1.40;;;;;;;17.53;35.87;99488.88;108713;1280;137882;-58
2022/05/16 12:02:29;;;;;;;3.70;0.80;;;;;;;17.69;35.93;99478.73;108878;1280;23324;-58
2022/05/16 12:05:09;;;;;;;3.00;1.50;;;;;;;17.72;35.44;99474.81;108796;1280;137136;-58
2022/05/16 12:07:47;;;;;;;2.60;1.40;;;;;;;17.75;35.36;99477.33;108930;1280;22426;-57
2022/05/16 12:10:15;;;;;;;3.30;1.10;;;;;;;17.78;34.11;99464.75;108765;1280;137776;-57
2022/05/16 12:12:49;;;;;;;3.70;1.10;;;;;;;17.80;34.78;99463.40;108879;1279;22406;-57
2022/05/16 12:15:17;;;;;;;2.60;1.50;;;;;;;17.85;34.67;99462.09;108769;1279;22410;-57
2022/05/16 12:18:03;;;;;;;8.40;1.40;;;;;;;17.93;35.14;99463.73;108767;1280;137766;-57
2022/05/16 12:20:43;;;;;;;5.50;1.80;;;;;;;18.03;35.24;99456.73;108714;1281;22623;-58
2022/05/16 12:23:12;;;;;;;3.60;1.00;;;;;;;18.17;35.34;99458.65;108787;1274;137405;-57
2022/05/16 12:25:41;;;;;;;2.80;1.40;;;;;;;18.24;35.03;99467.31;109342;1274;23469;-58
2022/05/16 12:28:12;;;;;;;3.80;0.90;;;;;;;18.27;34.75;99466.80;109194;1274;139106;-58